sensor_id;sensor_type;location;lat;lon;timestamp;P1;durP1;ratioP1;P2;durP2;ratioP2
18532;SDS011;9396;51.510;11.934;2023-05-09T00:00:23;9.27;;;5.83;;
18532;SDS011;9396;51.510;11.934;2023-05-09T00:02:50;7.27;;;6.10;;
18532;SDS011;9396;51.510;11.934;2023-05-09T00:05:18;8.77;;;5.80;;
18532;SDS011;9396;51.510;11.934;2023-05-09T00:07:45;7.03;;;5.50;;
18532;SDS011;9396;51.510;11.934;2023-05-09T00:10:12;8.07;;;5.97;;
18532;SDS011;9396;51.510;11.934;2023-05-09T00:12:39;7.37;;;5.80;;
18532;SDS011;9396;51.510;11.934;2023-05-09T00:15:09;6.77;;;5.77;;
18532;SDS011;9396;51.510;11.934;2023-05-09T00:17:36;7.77;;;6.30;;
18532;SDS011;9396;51.510;11.934;2023-05-09T00:20:04;12.80;;;6.60;;
18532;SDS011;9396;51.510;11.934;2023-05-09T00:22:36;10.00;;;6.17;;
18532;SDS011;9396;51.510;11.934;2023-05-09T00:25:03;7.63;;;6.20;;
18532;SDS011;9396;51.510;11.934;2023-05-09T00:27:30;8.77;;;5.83;;
18532;SDS011;9396;51.510;11.934;2023-05-09T00:29:57;11.07;;;6.53;;
18532;SDS011;9396;51.510;11.934;2023-05-09T00:32:25;10.17;;;6.30;;
18532;SDS011;9396;51.510;11.934;2023-05-09T00:34:53;6.60;;;5.87;;
18532;SDS011;9396;51.510;11.934;2023-05-09T00:37:19;10.17;;;6.20;;
18532;SDS011;9396;51.510;11.934;2023-05-09T00:39:46;7.47;;;5.67;;
18532;SDS011;9396;51.510;11.934;2023-05-09T00:42:13;9.50;;;6.10;;
18532;SDS011;9396;51.510;11.934;2023-05-09T00:44:40;10.17;;;5.70;;
18532;SDS011;9396;51.510;11.934;2023-05-09T00:47:07;9.27;;;6.10;;
18532;SDS011;9396;51.510;11.934;2023-05-09T00:49:35;7.30;;;5.87;;
18532;SDS011;9396;51.510;11.934;2023-05-09T00:52:03;9.20;;;6.27;;
18532;SDS011;9396;51.510;11.934;2023-05-09T00:54:30;8.00;;;5.97;;
18532;SDS011;9396;51.510;11.934;2023-05-09T00:56:57;7.70;;;5.73;;
18532;SDS011;9396;51.510;11.934;2023-05-09T00:59:24;8.17;;;6.33;;
18532;SDS011;9396;51.510;11.934;2023-05-09T01:01:52;8.37;;;5.53;;
18532;SDS011;9396;51.510;11.934;2023-05-09T01:04:20;9.50;;;5.70;;
18532;SDS011;9396;51.510;11.934;2023-05-09T01:06:51;8.70;;;5.80;;
18532;SDS011;9396;51.510;11.934;2023-05-09T01:09:23;7.90;;;6.10;;
18532;SDS011;9396;51.510;11.934;2023-05-09T01:11:59;7.47;;;6.13;;
18532;SDS011;9396;51.510;11.934;2023-05-09T01:14:36;8.63;;;6.17;;
18532;SDS011;9396;51.510;11.934;2023-05-09T01:17:10;9.67;;;6.37;;
18532;SDS011;9396;51.510;11.934;2023-05-09T01:19:49;6.60;;;5.93;;
18532;SDS011;9396;51.510;11.934;2023-05-09T01:22:25;6.83;;;5.33;;
18532;SDS011;9396;51.510;11.934;2023-05-09T01:25:04;8.17;;;6.30;;
18532;SDS011;9396;51.510;11.934;2023-05-09T01:27:39;11.30;;;6.00;;
18532;SDS011;9396;51.510;11.934;2023-05-09T01:30:14;6.87;;;6.10;;
18532;SDS011;9396;51.510;11.934;2023-05-09T01:32:42;7.00;;;5.83;;
18532;SDS011;9396;51.510;11.934;2023-05-09T01:35:09;6.40;;;5.43;;
18532;SDS011;9396;51.510;11.934;2023-05-09T01:37:40;7.27;;;5.93;;
18532;SDS011;9396;51.510;11.934;2023-05-09T01:40:10;7.87;;;6.47;;
18532;SDS011;9396;51.510;11.934;2023-05-09T01:42:41;11.40;;;5.87;;
18532;SDS011;9396;51.510;11.934;2023-05-09T01:45:10;7.47;;;5.70;;
18532;SDS011;9396;51.510;11.934;2023-05-09T01:47:40;7.70;;;5.77;;
18532;SDS011;9396;51.510;11.934;2023-05-09T01:50:08;7.10;;;6.03;;
18532;SDS011;9396;51.510;11.934;2023-05-09T01:52:36;7.87;;;5.50;;
18532;SDS011;9396;51.510;11.934;2023-05-09T01:55:04;8.60;;;6.13;;
18532;SDS011;9396;51.510;11.934;2023-05-09T01:57:32;6.60;;;5.83;;
18532;SDS011;9396;51.510;11.934;2023-05-09T02:00:01;9.60;;;6.00;;
18532;SDS011;9396;51.510;11.934;2023-05-09T02:02:28;7.57;;;5.43;;
18532;SDS011;9396;51.510;11.934;2023-05-09T02:04:57;8.63;;;6.37;;
18532;SDS011;9396;51.510;11.934;2023-05-09T02:07:24;7.67;;;6.87;;
18532;SDS011;9396;51.510;11.934;2023-05-09T02:09:54;7.47;;;5.97;;
18532;SDS011;9396;51.510;11.934;2023-05-09T02:12:23;8.00;;;6.40;;
18532;SDS011;9396;51.510;11.934;2023-05-09T02:14:49;8.63;;;5.80;;
18532;SDS011;9396;51.510;11.934;2023-05-09T02:17:16;7.17;;;6.07;;
18532;SDS011;9396;51.510;11.934;2023-05-09T02:19:43;7.63;;;5.90;;
18532;SDS011;9396;51.510;11.934;2023-05-09T02:22:12;7.93;;;5.90;;
18532;SDS011;9396;51.510;11.934;2023-05-09T02:24:41;6.90;;;5.57;;
18532;SDS011;9396;51.510;11.934;2023-05-09T02:27:08;9.50;;;5.97;;
18532;SDS011;9396;51.510;11.934;2023-05-09T02:29:37;10.97;;;6.17;;
18532;SDS011;9396;51.510;11.934;2023-05-09T02:32:08;6.30;;;5.10;;
18532;SDS011;9396;51.510;11.934;2023-05-09T02:34:37;6.77;;;5.73;;
18532;SDS011;9396;51.510;11.934;2023-05-09T02:37:06;9.90;;;5.73;;
18532;SDS011;9396;51.510;11.934;2023-05-09T02:39:35;7.00;;;5.43;;
18532;SDS011;9396;51.510;11.934;2023-05-09T02:42:04;9.07;;;6.10;;
18532;SDS011;9396;51.510;11.934;2023-05-09T02:44:32;6.10;;;5.50;;
18532;SDS011;9396;51.510;11.934;2023-05-09T02:46:58;6.63;;;5.80;;
18532;SDS011;9396;51.510;11.934;2023-05-09T02:49:26;10.93;;;5.97;;
18532;SDS011;9396;51.510;11.934;2023-05-09T02:51:52;8.83;;;6.40;;
18532;SDS011;9396;51.510;11.934;2023-05-09T02:54:19;8.30;;;5.83;;
18532;SDS011;9396;51.510;11.934;2023-05-09T02:56:48;6.53;;;5.60;;
18532;SDS011;9396;51.510;11.934;2023-05-09T02:59:14;7.57;;;5.60;;
18532;SDS011;9396;51.510;11.934;2023-05-09T03:01:42;12.30;;;5.60;;
18532;SDS011;9396;51.510;11.934;2023-05-09T03:04:08;9.07;;;6.47;;
18532;SDS011;9396;51.510;11.934;2023-05-09T03:06:35;7.27;;;5.80;;
18532;SDS011;9396;51.510;11.934;2023-05-09T03:09:02;11.13;;;6.87;;
18532;SDS011;9396;51.510;11.934;2023-05-09T03:11:29;7.33;;;5.80;;
18532;SDS011;9396;51.510;11.934;2023-05-09T03:13:57;6.80;;;5.90;;
18532;SDS011;9396;51.510;11.934;2023-05-09T03:16:23;6.63;;;5.87;;
18532;SDS011;9396;51.510;11.934;2023-05-09T03:18:50;7.97;;;6.30;;
18532;SDS011;9396;51.510;11.934;2023-05-09T03:21:16;8.73;;;5.83;;
18532;SDS011;9396;51.510;11.934;2023-05-09T03:23:43;10.43;;;5.57;;
18532;SDS011;9396;51.510;11.934;2023-05-09T03:26:10;6.70;;;5.80;;
18532;SDS011;9396;51.510;11.934;2023-05-09T03:28:36;11.23;;;6.97;;
18532;SDS011;9396;51.510;11.934;2023-05-09T03:31:04;7.07;;;6.37;;
18532;SDS011;9396;51.510;11.934;2023-05-09T03:33:31;9.67;;;6.27;;
18532;SDS011;9396;51.510;11.934;2023-05-09T03:35:57;11.03;;;5.73;;
18532;SDS011;9396;51.510;11.934;2023-05-09T03:38:24;8.57;;;5.50;;
18532;SDS011;9396;51.510;11.934;2023-05-09T03:40:51;8.70;;;5.97;;
18532;SDS011;9396;51.510;11.934;2023-05-09T03:43:18;6.87;;;5.63;;
18532;SDS011;9396;51.510;11.934;2023-05-09T03:45:45;6.93;;;5.73;;
18532;SDS011;9396;51.510;11.934;2023-05-09T03:48:13;8.50;;;5.57;;
18532;SDS011;9396;51.510;11.934;2023-05-09T03:50:40;7.97;;;5.63;;
18532;SDS011;9396;51.510;11.934;2023-05-09T03:53:08;10.00;;;6.00;;
18532;SDS011;9396;51.510;11.934;2023-05-09T03:55:34;8.10;;;5.97;;
18532;SDS011;9396;51.510;11.934;2023-05-09T03:58:01;8.83;;;5.57;;
18532;SDS011;9396;51.510;11.934;2023-05-09T04:00:28;8.90;;;6.10;;
18532;SDS011;9396;51.510;11.934;2023-05-09T04:02:54;9.90;;;5.63;;
18532;SDS011;9396;51.510;11.934;2023-05-09T04:05:23;9.73;;;5.90;;
18532;SDS011;9396;51.510;11.934;2023-05-09T04:07:51;7.03;;;5.93;;
18532;SDS011;9396;51.510;11.934;2023-05-09T04:10:17;9.00;;;6.10;;
18532;SDS011;9396;51.510;11.934;2023-05-09T04:12:44;6.83;;;6.07;;
18532;SDS011;9396;51.510;11.934;2023-05-09T04:15:11;7.50;;;5.57;;
18532;SDS011;9396;51.510;11.934;2023-05-09T04:17:37;8.57;;;6.73;;
18532;SDS011;9396;51.510;11.934;2023-05-09T04:20:04;6.67;;;5.53;;
18532;SDS011;9396;51.510;11.934;2023-05-09T04:22:33;6.90;;;5.90;;
18532;SDS011;9396;51.510;11.934;2023-05-09T04:25:00;7.73;;;6.10;;
18532;SDS011;9396;51.510;11.934;2023-05-09T04:27:27;8.77;;;6.10;;
18532;SDS011;9396;51.510;11.934;2023-05-09T04:29:54;9.67;;;5.50;;
18532;SDS011;9396;51.510;11.934;2023-05-09T04:32:20;8.93;;;5.63;;
18532;SDS011;9396;51.510;11.934;2023-05-09T04:34:47;8.13;;;5.43;;
18532;SDS011;9396;51.510;11.934;2023-05-09T04:37:14;10.73;;;6.17;;
18532;SDS011;9396;51.510;11.934;2023-05-09T04:39:42;9.53;;;5.63;;
18532;SDS011;9396;51.510;11.934;2023-05-09T04:42:09;7.00;;;5.63;;
18532;SDS011;9396;51.510;11.934;2023-05-09T04:44:35;7.73;;;6.03;;
18532;SDS011;9396;51.510;11.934;2023-05-09T04:47:02;9.77;;;6.13;;
18532;SDS011;9396;51.510;11.934;2023-05-09T04:49:28;8.23;;;6.47;;
18532;SDS011;9396;51.510;11.934;2023-05-09T04:51:55;9.17;;;5.73;;
18532;SDS011;9396;51.510;11.934;2023-05-09T04:54:22;9.70;;;5.33;;
18532;SDS011;9396;51.510;11.934;2023-05-09T04:56:50;8.77;;;5.50;;
18532;SDS011;9396;51.510;11.934;2023-05-09T04:59:16;8.10;;;5.93;;
18532;SDS011;9396;51.510;11.934;2023-05-09T05:01:43;8.70;;;5.83;;
18532;SDS011;9396;51.510;11.934;2023-05-09T05:04:10;8.23;;;5.60;;
18532;SDS011;9396;51.510;11.934;2023-05-09T05:06:36;6.87;;;5.47;;
18532;SDS011;9396;51.510;11.934;2023-05-09T05:09:03;5.97;;;5.10;;
18532;SDS011;9396;51.510;11.934;2023-05-09T05:11:30;9.23;;;4.80;;
18532;SDS011;9396;51.510;11.934;2023-05-09T05:13:58;6.87;;;5.30;;
18532;SDS011;9396;51.510;11.934;2023-05-09T05:16:24;10.70;;;5.50;;
18532;SDS011;9396;51.510;11.934;2023-05-09T05:18:51;11.50;;;5.87;;
18532;SDS011;9396;51.510;11.934;2023-05-09T05:21:17;7.20;;;5.33;;
18532;SDS011;9396;51.510;11.934;2023-05-09T05:23:44;6.93;;;5.47;;
18532;SDS011;9396;51.510;11.934;2023-05-09T05:26:10;15.00;;;5.93;;
18532;SDS011;9396;51.510;11.934;2023-05-09T05:28:37;7.70;;;5.60;;
18532;SDS011;9396;51.510;11.934;2023-05-09T05:31:05;11.60;;;5.87;;
18532;SDS011;9396;51.510;11.934;2023-05-09T05:33:32;7.67;;;5.10;;
18532;SDS011;9396;51.510;11.934;2023-05-09T05:35:58;6.87;;;4.90;;
18532;SDS011;9396;51.510;11.934;2023-05-09T05:38:25;8.00;;;5.17;;
18532;SDS011;9396;51.510;11.934;2023-05-09T05:40:51;11.53;;;5.30;;
18532;SDS011;9396;51.510;11.934;2023-05-09T05:43:18;10.03;;;5.33;;
18532;SDS011;9396;51.510;11.934;2023-05-09T05:45:45;8.13;;;4.83;;
18532;SDS011;9396;51.510;11.934;2023-05-09T05:48:12;6.90;;;4.17;;
18532;SDS011;9396;51.510;11.934;2023-05-09T05:50:39;7.03;;;4.80;;
18532;SDS011;9396;51.510;11.934;2023-05-09T05:53:06;7.03;;;4.43;;
18532;SDS011;9396;51.510;11.934;2023-05-09T05:55:32;8.13;;;4.70;;
18532;SDS011;9396;51.510;11.934;2023-05-09T05:57:59;6.90;;;4.00;;
18532;SDS011;9396;51.510;11.934;2023-05-09T06:00:25;11.63;;;4.77;;
18532;SDS011;9396;51.510;11.934;2023-05-09T06:02:52;5.27;;;4.03;;
18532;SDS011;9396;51.510;11.934;2023-05-09T06:05:20;5.90;;;4.33;;
18532;SDS011;9396;51.510;11.934;2023-05-09T06:07:47;6.73;;;4.23;;
18532;SDS011;9396;51.510;11.934;2023-05-09T06:10:13;6.20;;;4.57;;
18532;SDS011;9396;51.510;11.934;2023-05-09T06:12:41;6.90;;;4.10;;
18532;SDS011;9396;51.510;11.934;2023-05-09T06:15:08;8.90;;;3.80;;
18532;SDS011;9396;51.510;11.934;2023-05-09T06:17:35;6.10;;;3.90;;
18532;SDS011;9396;51.510;11.934;2023-05-09T06:20:01;5.27;;;3.93;;
18532;SDS011;9396;51.510;11.934;2023-05-09T06:22:30;10.57;;;4.03;;
18532;SDS011;9396;51.510;11.934;2023-05-09T06:24:56;6.83;;;3.73;;
18532;SDS011;9396;51.510;11.934;2023-05-09T06:27:23;7.60;;;3.83;;
18532;SDS011;9396;51.510;11.934;2023-05-09T06:29:49;3.73;;;3.33;;
18532;SDS011;9396;51.510;11.934;2023-05-09T06:32:16;4.33;;;3.50;;
18532;SDS011;9396;51.510;11.934;2023-05-09T06:34:43;9.63;;;3.90;;
18532;SDS011;9396;51.510;11.934;2023-05-09T06:37:10;7.90;;;4.20;;
18532;SDS011;9396;51.510;11.934;2023-05-09T06:39:38;7.60;;;3.50;;
18532;SDS011;9396;51.510;11.934;2023-05-09T06:42:05;5.87;;;3.37;;
18532;SDS011;9396;51.510;11.934;2023-05-09T06:44:31;7.97;;;3.40;;
18532;SDS011;9396;51.510;11.934;2023-05-09T06:46:58;3.97;;;3.30;;
18532;SDS011;9396;51.510;11.934;2023-05-09T06:49:25;5.57;;;2.93;;
18532;SDS011;9396;51.510;11.934;2023-05-09T06:51:52;4.40;;;3.20;;
18532;SDS011;9396;51.510;11.934;2023-05-09T06:54:19;9.33;;;4.40;;
18532;SDS011;9396;51.510;11.934;2023-05-09T06:56:47;5.50;;;3.33;;
18532;SDS011;9396;51.510;11.934;2023-05-09T06:59:13;5.43;;;3.43;;
18532;SDS011;9396;51.510;11.934;2023-05-09T07:01:40;4.63;;;3.13;;
18532;SDS011;9396;51.510;11.934;2023-05-09T07:04:07;7.80;;;3.20;;
18532;SDS011;9396;51.510;11.934;2023-05-09T07:06:34;5.30;;;3.03;;
18532;SDS011;9396;51.510;11.934;2023-05-09T07:09:00;6.73;;;3.40;;
18532;SDS011;9396;51.510;11.934;2023-05-09T07:11:28;4.37;;;2.97;;
18532;SDS011;9396;51.510;11.934;2023-05-09T07:14:00;6.50;;;2.90;;
18532;SDS011;9396;51.510;11.934;2023-05-09T07:16:27;3.97;;;2.40;;
18532;SDS011;9396;51.510;11.934;2023-05-09T07:18:54;6.93;;;3.20;;
18532;SDS011;9396;51.510;11.934;2023-05-09T07:21:21;4.13;;;2.70;;
18532;SDS011;9396;51.510;11.934;2023-05-09T07:23:47;4.10;;;3.07;;
18532;SDS011;9396;51.510;11.934;2023-05-09T07:26:14;7.33;;;2.80;;
18532;SDS011;9396;51.510;11.934;2023-05-09T07:28:40;4.57;;;3.00;;
18532;SDS011;9396;51.510;11.934;2023-05-09T07:31:08;4.43;;;3.20;;
18532;SDS011;9396;51.510;11.934;2023-05-09T07:33:35;4.30;;;2.87;;
18532;SDS011;9396;51.510;11.934;2023-05-09T07:36:01;3.87;;;3.07;;
18532;SDS011;9396;51.510;11.934;2023-05-09T07:38:28;3.93;;;3.07;;
18532;SDS011;9396;51.510;11.934;2023-05-09T07:40:55;12.40;;;3.03;;
18532;SDS011;9396;51.510;11.934;2023-05-09T07:43:21;3.70;;;2.70;;
18532;SDS011;9396;51.510;11.934;2023-05-09T07:45:48;13.73;;;3.43;;
18532;SDS011;9396;51.510;11.934;2023-05-09T07:48:16;6.20;;;3.90;;
18532;SDS011;9396;51.510;11.934;2023-05-09T07:50:43;5.37;;;3.40;;
18532;SDS011;9396;51.510;11.934;2023-05-09T07:53:09;7.83;;;3.10;;
18532;SDS011;9396;51.510;11.934;2023-05-09T07:55:36;3.87;;;2.77;;
18532;SDS011;9396;51.510;11.934;2023-05-09T07:58:03;8.50;;;3.33;;
18532;SDS011;9396;51.510;11.934;2023-05-09T08:00:29;7.57;;;3.00;;
18532;SDS011;9396;51.510;11.934;2023-05-09T08:02:56;8.50;;;2.90;;
18532;SDS011;9396;51.510;11.934;2023-05-09T08:05:24;3.50;;;2.60;;
18532;SDS011;9396;51.510;11.934;2023-05-09T08:07:50;8.23;;;3.40;;
18532;SDS011;9396;51.510;11.934;2023-05-09T08:10:17;6.93;;;3.10;;
18532;SDS011;9396;51.510;11.934;2023-05-09T08:12:45;4.63;;;3.00;;
18532;SDS011;9396;51.510;11.934;2023-05-09T08:15:12;5.20;;;2.80;;
18532;SDS011;9396;51.510;11.934;2023-05-09T08:17:39;5.27;;;2.93;;
18532;SDS011;9396;51.510;11.934;2023-05-09T08:20:06;5.50;;;3.20;;
18532;SDS011;9396;51.510;11.934;2023-05-09T08:22:34;5.83;;;3.17;;
18532;SDS011;9396;51.510;11.934;2023-05-09T08:25:01;5.83;;;2.90;;
18532;SDS011;9396;51.510;11.934;2023-05-09T08:27:27;4.70;;;2.83;;
18532;SDS011;9396;51.510;11.934;2023-05-09T08:29:54;6.47;;;3.50;;
18532;SDS011;9396;51.510;11.934;2023-05-09T08:32:20;6.50;;;3.37;;
18532;SDS011;9396;51.510;11.934;2023-05-09T08:34:47;5.83;;;3.13;;
18532;SDS011;9396;51.510;11.934;2023-05-09T08:37:14;7.97;;;3.10;;
18532;SDS011;9396;51.510;11.934;2023-05-09T08:39:42;3.50;;;3.10;;
18532;SDS011;9396;51.510;11.934;2023-05-09T08:42:08;10.70;;;3.40;;
18532;SDS011;9396;51.510;11.934;2023-05-09T08:44:35;4.00;;;2.77;;
18532;SDS011;9396;51.510;11.934;2023-05-09T08:47:02;5.37;;;2.87;;
18532;SDS011;9396;51.510;11.934;2023-05-09T08:49:29;8.97;;;3.23;;
18532;SDS011;9396;51.510;11.934;2023-05-09T08:51:57;7.93;;;2.97;;
18532;SDS011;9396;51.510;11.934;2023-05-09T08:54:24;6.17;;;3.40;;
18532;SDS011;9396;51.510;11.934;2023-05-09T08:56:52;3.67;;;2.90;;
18532;SDS011;9396;51.510;11.934;2023-05-09T08:59:19;5.73;;;2.80;;
18532;SDS011;9396;51.510;11.934;2023-05-09T09:01:47;4.80;;;3.63;;
18532;SDS011;9396;51.510;11.934;2023-05-09T09:04:14;4.43;;;3.30;;
18532;SDS011;9396;51.510;11.934;2023-05-09T09:06:40;8.83;;;3.20;;
18532;SDS011;9396;51.510;11.934;2023-05-09T09:09:08;3.53;;;2.80;;
18532;SDS011;9396;51.510;11.934;2023-05-09T09:11:36;7.27;;;3.27;;
18532;SDS011;9396;51.510;11.934;2023-05-09T09:14:08;5.40;;;3.30;;
18532;SDS011;9396;51.510;11.934;2023-05-09T09:16:37;6.03;;;3.13;;
18532;SDS011;9396;51.510;11.934;2023-05-09T09:19:06;3.77;;;2.73;;
18532;SDS011;9396;51.510;11.934;2023-05-09T09:21:36;7.57;;;3.20;;
18532;SDS011;9396;51.510;11.934;2023-05-09T09:24:06;4.90;;;3.23;;
18532;SDS011;9396;51.510;11.934;2023-05-09T09:26:33;4.60;;;3.03;;
18532;SDS011;9396;51.510;11.934;2023-05-09T09:29:00;5.17;;;3.23;;
18532;SDS011;9396;51.510;11.934;2023-05-09T09:31:29;3.40;;;2.90;;
18532;SDS011;9396;51.510;11.934;2023-05-09T09:34:00;6.47;;;2.97;;
18532;SDS011;9396;51.510;11.934;2023-05-09T09:36:27;6.63;;;3.17;;
18532;SDS011;9396;51.510;11.934;2023-05-09T09:38:55;6.17;;;2.90;;
18532;SDS011;9396;51.510;11.934;2023-05-09T09:41:28;3.30;;;2.67;;
18532;SDS011;9396;51.510;11.934;2023-05-09T09:43:56;7.60;;;2.90;;
18532;SDS011;9396;51.510;11.934;2023-05-09T09:46:22;7.60;;;3.07;;
18532;SDS011;9396;51.510;11.934;2023-05-09T09:48:51;5.63;;;2.93;;
18532;SDS011;9396;51.510;11.934;2023-05-09T09:51:20;5.23;;;2.90;;
18532;SDS011;9396;51.510;11.934;2023-05-09T09:53:47;5.63;;;2.50;;
18532;SDS011;9396;51.510;11.934;2023-05-09T09:56:14;6.43;;;2.60;;
18532;SDS011;9396;51.510;11.934;2023-05-09T09:58:40;4.57;;;2.53;;
18532;SDS011;9396;51.510;11.934;2023-05-09T10:01:07;5.40;;;2.73;;
18532;SDS011;9396;51.510;11.934;2023-05-09T10:03:35;5.90;;;2.80;;
18532;SDS011;9396;51.510;11.934;2023-05-09T10:06:04;9.57;;;2.83;;
18532;SDS011;9396;51.510;11.934;2023-05-09T10:08:35;4.33;;;2.77;;
18532;SDS011;9396;51.510;11.934;2023-05-09T10:11:01;3.20;;;2.53;;
18532;SDS011;9396;51.510;11.934;2023-05-09T10:13:28;6.10;;;2.50;;
18532;SDS011;9396;51.510;11.934;2023-05-09T10:15:55;3.13;;;2.17;;
18532;SDS011;9396;51.510;11.934;2023-05-09T10:18:24;5.63;;;2.70;;
18532;SDS011;9396;51.510;11.934;2023-05-09T10:20:53;6.97;;;2.50;;
18532;SDS011;9396;51.510;11.934;2023-05-09T10:23:26;3.40;;;2.70;;
18532;SDS011;9396;51.510;11.934;2023-05-09T10:25:57;5.83;;;2.77;;
18532;SDS011;9396;51.510;11.934;2023-05-09T10:28:30;2.73;;;2.33;;
18532;SDS011;9396;51.510;11.934;2023-05-09T10:30:58;5.47;;;2.40;;
18532;SDS011;9396;51.510;11.934;2023-05-09T10:33:30;4.97;;;2.93;;
18532;SDS011;9396;51.510;11.934;2023-05-09T10:36:00;3.17;;;2.60;;
18532;SDS011;9396;51.510;11.934;2023-05-09T10:38:30;3.07;;;2.53;;
18532;SDS011;9396;51.510;11.934;2023-05-09T10:40:57;5.87;;;2.67;;
18532;SDS011;9396;51.510;11.934;2023-05-09T10:43:24;5.60;;;2.40;;
18532;SDS011;9396;51.510;11.934;2023-05-09T10:45:51;5.73;;;2.60;;
18532;SDS011;9396;51.510;11.934;2023-05-09T10:48:18;5.47;;;3.00;;
18532;SDS011;9396;51.510;11.934;2023-05-09T10:50:45;4.03;;;2.57;;
18532;SDS011;9396;51.510;11.934;2023-05-09T10:53:13;4.60;;;2.80;;
18532;SDS011;9396;51.510;11.934;2023-05-09T10:55:49;4.70;;;2.57;;
18532;SDS011;9396;51.510;11.934;2023-05-09T10:58:17;4.97;;;2.40;;
18532;SDS011;9396;51.510;11.934;2023-05-09T11:00:46;4.37;;;2.30;;
18532;SDS011;9396;51.510;11.934;2023-05-09T11:03:13;3.30;;;2.23;;
18532;SDS011;9396;51.510;11.934;2023-05-09T11:05:42;2.97;;;2.30;;
18532;SDS011;9396;51.510;11.934;2023-05-09T11:08:18;5.20;;;2.97;;
18532;SDS011;9396;51.510;11.934;2023-05-09T11:10:46;4.67;;;2.87;;
18532;SDS011;9396;51.510;11.934;2023-05-09T11:13:14;4.97;;;2.57;;
18532;SDS011;9396;51.510;11.934;2023-05-09T11:15:50;4.93;;;2.97;;
18532;SDS011;9396;51.510;11.934;2023-05-09T11:18:29;6.47;;;2.50;;
18532;SDS011;9396;51.510;11.934;2023-05-09T11:20:57;5.93;;;2.70;;
18532;SDS011;9396;51.510;11.934;2023-05-09T11:23:25;4.93;;;2.63;;
18532;SDS011;9396;51.510;11.934;2023-05-09T11:25:53;4.07;;;2.50;;
18532;SDS011;9396;51.510;11.934;2023-05-09T11:28:32;11.47;;;2.83;;
18532;SDS011;9396;51.510;11.934;2023-05-09T11:31:09;7.07;;;2.30;;
18532;SDS011;9396;51.510;11.934;2023-05-09T11:33:37;7.20;;;2.50;;
18532;SDS011;9396;51.510;11.934;2023-05-09T11:36:14;3.83;;;2.60;;
18532;SDS011;9396;51.510;11.934;2023-05-09T11:38:42;6.67;;;2.43;;
18532;SDS011;9396;51.510;11.934;2023-05-09T11:41:09;2.80;;;2.40;;
18532;SDS011;9396;51.510;11.934;2023-05-09T11:43:38;4.57;;;2.40;;
18532;SDS011;9396;51.510;11.934;2023-05-09T11:46:05;3.23;;;2.30;;
18532;SDS011;9396;51.510;11.934;2023-05-09T11:48:36;3.17;;;2.40;;
18532;SDS011;9396;51.510;11.934;2023-05-09T11:51:03;5.50;;;2.70;;
18532;SDS011;9396;51.510;11.934;2023-05-09T11:53:29;4.33;;;2.60;;
18532;SDS011;9396;51.510;11.934;2023-05-09T11:55:56;8.97;;;3.27;;
18532;SDS011;9396;51.510;11.934;2023-05-09T11:58:23;8.50;;;2.70;;
18532;SDS011;9396;51.510;11.934;2023-05-09T12:00:51;2.87;;;2.17;;
18532;SDS011;9396;51.510;11.934;2023-05-09T12:03:17;6.23;;;2.80;;
18532;SDS011;9396;51.510;11.934;2023-05-09T12:05:44;4.87;;;2.73;;
18532;SDS011;9396;51.510;11.934;2023-05-09T12:08:13;5.60;;;2.50;;
18532;SDS011;9396;51.510;11.934;2023-05-09T12:10:40;6.37;;;2.70;;
18532;SDS011;9396;51.510;11.934;2023-05-09T12:13:06;5.27;;;2.70;;
18532;SDS011;9396;51.510;11.934;2023-05-09T12:15:36;4.13;;;2.60;;
18532;SDS011;9396;51.510;11.934;2023-05-09T12:18:04;3.53;;;2.50;;
18532;SDS011;9396;51.510;11.934;2023-05-09T12:20:39;5.03;;;2.80;;
18532;SDS011;9396;51.510;11.934;2023-05-09T12:23:07;4.10;;;2.53;;
18532;SDS011;9396;51.510;11.934;2023-05-09T12:25:34;3.20;;;2.23;;
18532;SDS011;9396;51.510;11.934;2023-05-09T12:28:01;3.77;;;2.33;;
18532;SDS011;9396;51.510;11.934;2023-05-09T12:30:28;3.90;;;2.23;;
18532;SDS011;9396;51.510;11.934;2023-05-09T12:32:55;5.27;;;2.37;;
18532;SDS011;9396;51.510;11.934;2023-05-09T12:35:24;5.20;;;2.70;;
18532;SDS011;9396;51.510;11.934;2023-05-09T12:37:54;3.87;;;2.07;;
18532;SDS011;9396;51.510;11.934;2023-05-09T12:40:21;5.73;;;2.90;;
18532;SDS011;9396;51.510;11.934;2023-05-09T12:42:48;2.77;;;2.30;;
18532;SDS011;9396;51.510;11.934;2023-05-09T12:45:17;3.07;;;2.13;;
18532;SDS011;9396;51.510;11.934;2023-05-09T12:47:48;6.93;;;2.40;;
18532;SDS011;9396;51.510;11.934;2023-05-09T12:50:17;5.17;;;2.10;;
18532;SDS011;9396;51.510;11.934;2023-05-09T12:52:48;6.47;;;2.30;;
18532;SDS011;9396;51.510;11.934;2023-05-09T12:55:17;3.67;;;2.20;;
18532;SDS011;9396;51.510;11.934;2023-05-09T12:57:49;3.57;;;2.20;;
18532;SDS011;9396;51.510;11.934;2023-05-09T13:00:23;7.63;;;2.30;;
18532;SDS011;9396;51.510;11.934;2023-05-09T13:02:50;2.80;;;2.10;;
18532;SDS011;9396;51.510;11.934;2023-05-09T13:05:17;4.50;;;2.30;;
18532;SDS011;9396;51.510;11.934;2023-05-09T13:07:47;5.40;;;2.33;;
18532;SDS011;9396;51.510;11.934;2023-05-09T13:10:15;5.40;;;2.53;;
18532;SDS011;9396;51.510;11.934;2023-05-09T13:12:45;5.93;;;2.20;;
18532;SDS011;9396;51.510;11.934;2023-05-09T13:15:13;4.07;;;2.10;;
18532;SDS011;9396;51.510;11.934;2023-05-09T13:17:40;3.23;;;2.30;;
18532;SDS011;9396;51.510;11.934;2023-05-09T13:20:07;3.13;;;2.13;;
18532;SDS011;9396;51.510;11.934;2023-05-09T13:22:34;3.57;;;2.30;;
18532;SDS011;9396;51.510;11.934;2023-05-09T13:25:03;5.83;;;2.30;;
18532;SDS011;9396;51.510;11.934;2023-05-09T13:27:31;4.57;;;2.07;;
18532;SDS011;9396;51.510;11.934;2023-05-09T13:29:58;6.03;;;2.20;;
18532;SDS011;9396;51.510;11.934;2023-05-09T13:32:25;5.73;;;2.30;;
18532;SDS011;9396;51.510;11.934;2023-05-09T13:34:52;3.90;;;2.13;;
18532;SDS011;9396;51.510;11.934;2023-05-09T13:37:18;7.50;;;2.20;;
18532;SDS011;9396;51.510;11.934;2023-05-09T13:39:45;3.90;;;2.13;;
18532;SDS011;9396;51.510;11.934;2023-05-09T13:42:13;4.70;;;2.27;;
18532;SDS011;9396;51.510;11.934;2023-05-09T13:44:40;6.73;;;1.70;;
18532;SDS011;9396;51.510;11.934;2023-05-09T13:47:07;3.73;;;2.03;;
18532;SDS011;9396;51.510;11.934;2023-05-09T13:49:35;3.83;;;2.37;;
18532;SDS011;9396;51.510;11.934;2023-05-09T13:52:02;5.83;;;2.10;;
18532;SDS011;9396;51.510;11.934;2023-05-09T13:54:29;8.27;;;1.90;;
18532;SDS011;9396;51.510;11.934;2023-05-09T13:56:59;6.70;;;2.23;;
18532;SDS011;9396;51.510;11.934;2023-05-09T13:59:27;5.43;;;2.03;;
18532;SDS011;9396;51.510;11.934;2023-05-09T14:01:55;3.07;;;2.00;;
18532;SDS011;9396;51.510;11.934;2023-05-09T14:04:22;3.27;;;2.13;;
18532;SDS011;9396;51.510;11.934;2023-05-09T14:06:49;4.10;;;2.30;;
18532;SDS011;9396;51.510;11.934;2023-05-09T14:09:16;4.57;;;1.93;;
18532;SDS011;9396;51.510;11.934;2023-05-09T14:11:43;2.77;;;1.60;;
18532;SDS011;9396;51.510;11.934;2023-05-09T14:14:10;3.77;;;2.17;;
18532;SDS011;9396;51.510;11.934;2023-05-09T14:16:38;4.20;;;1.80;;
18532;SDS011;9396;51.510;11.934;2023-05-09T14:19:04;6.87;;;1.80;;
18532;SDS011;9396;51.510;11.934;2023-05-09T14:21:32;3.13;;;1.77;;
18532;SDS011;9396;51.510;11.934;2023-05-09T14:23:58;3.10;;;2.00;;
18532;SDS011;9396;51.510;11.934;2023-05-09T14:26:25;4.33;;;1.97;;
18532;SDS011;9396;51.510;11.934;2023-05-09T14:28:52;2.90;;;1.67;;
18532;SDS011;9396;51.510;11.934;2023-05-09T14:31:19;2.77;;;2.00;;
18532;SDS011;9396;51.510;11.934;2023-05-09T14:33:47;3.33;;;2.00;;
18532;SDS011;9396;51.510;11.934;2023-05-09T14:36:14;5.00;;;1.93;;
18532;SDS011;9396;51.510;11.934;2023-05-09T14:38:40;2.50;;;1.67;;
18532;SDS011;9396;51.510;11.934;2023-05-09T14:41:08;2.37;;;1.50;;
18532;SDS011;9396;51.510;11.934;2023-05-09T14:43:35;4.40;;;1.83;;
18532;SDS011;9396;51.510;11.934;2023-05-09T14:46:01;2.37;;;1.50;;
18532;SDS011;9396;51.510;11.934;2023-05-09T14:48:28;4.53;;;1.97;;